createdAt,value
2022-09-07T00:00:56.645Z,23.27
2022-09-07T00:03:23.850Z,23.25
2022-09-07T00:05:51.819Z,23.22
2022-09-07T00:08:21.990Z,23.21
2022-09-07T00:11:00.218Z,23.19
2022-09-07T00:13:29.617Z,23.17
2022-09-07T00:15:56.537Z,23.15
2022-09-07T00:18:23.344Z,23.15
2022-09-07T00:21:08.364Z,23.12
2022-09-07T00:23:36.921Z,23.10
2022-09-07T00:26:06.180Z,23.08
2022-09-07T00:28:33.461Z,23.07
2022-09-07T00:31:00.303Z,23.07
2022-09-07T00:33:27.497Z,23.06
2022-09-07T00:35:54.329Z,23.05
2022-09-07T00:38:21.296Z,23.04
2022-09-07T00:40:48.039Z,23.02
2022-09-07T00:43:38.941Z,23.01
2022-09-07T00:46:07.588Z,22.99
2022-09-07T00:48:43.803Z,22.96
2022-09-07T00:51:15.230Z,22.93
2022-09-07T00:53:44.967Z,22.90
2022-09-07T00:56:11.999Z,22.87
2022-09-07T00:58:40.897Z,22.82
2022-09-07T01:01:08.094Z,22.80
2022-09-07T01:03:39.417Z,22.78
2022-09-07T01:06:29.893Z,22.77
2022-09-07T01:09:00.406Z,22.76
2022-09-07T01:11:27.144Z,22.74
2022-09-07T01:13:54.462Z,22.73
2022-09-07T01:16:28.236Z,22.71
2022-09-07T01:19:12.922Z,22.69
2022-09-07T01:22:16.462Z,22.64
2022-09-07T01:24:55.198Z,22.61
2022-09-07T01:27:42.852Z,22.58
2022-09-07T01:30:15.299Z,22.55
2022-09-07T01:33:05.744Z,22.55
2022-09-07T01:35:55.435Z,22.53
2022-09-07T01:38:30.635Z,22.52
2022-09-07T01:41:09.280Z,22.50
2022-09-07T01:44:13.885Z,22.48
2022-09-07T01:47:08.117Z,22.48
2022-09-07T01:49:48.790Z,22.45
2022-09-07T01:52:36.184Z,22.45
2022-09-07T01:55:24.289Z,22.43
2022-09-07T01:58:16.937Z,22.42
2022-09-07T02:00:47.878Z,22.41
2022-09-07T02:03:20.653Z,22.39
2022-09-07T02:05:58.995Z,22.39
2022-09-07T02:08:29.138Z,22.39
2022-09-07T02:11:00.508Z,22.39
2022-09-07T02:13:33.236Z,22.39
2022-09-07T02:16:03.316Z,22.39
2022-09-07T02:18:34.697Z,22.38
2022-09-07T02:21:01.869Z,22.37
2022-09-07T02:23:33.159Z,22.36
2022-09-07T02:26:02.992Z,22.32
2022-09-07T02:28:33.191Z,22.31
2022-09-07T02:31:00.356Z,22.28
2022-09-07T02:33:28.069Z,22.26
2022-09-07T02:35:54.825Z,22.21
2022-09-07T02:38:21.563Z,22.20
2022-09-07T02:40:52.443Z,22.18
2022-09-07T02:43:20.682Z,22.18
2022-09-07T02:46:10.377Z,22.18
2022-09-07T02:49:08.730Z,22.16
2022-09-07T02:51:52.645Z,22.17
2022-09-07T02:54:25.245Z,22.16
2022-09-07T02:56:56.497Z,22.17
2022-09-07T02:59:40.315Z,22.16
2022-09-07T03:02:29.433Z,22.16
2022-09-07T03:05:23.375Z,22.15
2022-09-07T03:07:55.613Z,22.14
2022-09-07T03:10:23.000Z,22.13
2022-09-07T03:12:50.531Z,22.12
2022-09-07T03:15:22.735Z,22.14
2022-09-07T03:17:49.641Z,22.14
2022-09-07T03:20:17.111Z,22.15
2022-09-07T03:22:44.720Z,22.14
2022-09-07T03:25:11.488Z,22.12
2022-09-07T03:27:38.220Z,22.10
2022-09-07T03:30:06.513Z,22.10
2022-09-07T03:32:35.029Z,22.09
2022-09-07T03:35:02.205Z,22.09
2022-09-07T03:37:29.208Z,22.10
2022-09-07T03:39:56.029Z,22.12
2022-09-07T03:42:22.842Z,22.14
2022-09-07T03:44:49.969Z,22.15
2022-09-07T03:47:17.310Z,22.15
2022-09-07T03:49:44.175Z,22.15
2022-09-07T03:52:11.161Z,22.14
2022-09-07T03:54:39.752Z,22.16
2022-09-07T03:57:06.876Z,22.19
2022-09-07T03:59:33.767Z,22.21
2022-09-07T04:02:00.531Z,22.24
2022-09-07T04:04:27.388Z,22.30
2022-09-07T04:06:54.260Z,22.33
2022-09-07T04:09:21.041Z,22.38
2022-09-07T04:11:47.791Z,22.43
2022-09-07T04:14:14.535Z,22.45
2022-09-07T04:16:41.368Z,22.51
2022-09-07T04:19:08.166Z,22.53
2022-09-07T04:21:34.903Z,22.57
2022-09-07T04:24:01.685Z,22.59
2022-09-07T04:26:31.487Z,22.61
2022-09-07T04:28:58.855Z,22.63
2022-09-07T04:31:25.770Z,22.62
2022-09-07T04:33:52.825Z,22.48
2022-09-07T04:36:20.214Z,22.31
2022-09-07T04:38:47.150Z,22.17
2022-09-07T04:41:18.525Z,22.06
2022-09-07T04:43:46.272Z,21.95
2022-09-07T04:46:20.064Z,21.85
2022-09-07T04:48:51.160Z,21.76
2022-09-07T04:51:18.584Z,21.69
2022-09-07T04:53:48.013Z,21.65
2022-09-07T04:56:16.997Z,21.63
2022-09-07T04:58:44.440Z,21.62
2022-09-07T05:01:13.677Z,21.60
2022-09-07T05:03:40.596Z,21.57
2022-09-07T05:06:07.999Z,21.52
2022-09-07T05:08:39.129Z,21.48
2022-09-07T05:11:05.998Z,21.44
2022-09-07T05:13:32.800Z,21.42
2022-09-07T05:16:00.243Z,21.42
2022-09-07T05:18:27.052Z,21.41
2022-09-07T05:20:53.835Z,21.39
2022-09-07T05:23:20.583Z,21.35
2022-09-07T05:25:47.342Z,21.28
2022-09-07T05:28:19.110Z,21.21
2022-09-07T05:36:20.592Z,21.22
2022-09-07T05:38:47.339Z,21.21
2022-09-07T05:41:19.328Z,21.21
2022-09-07T05:46:33.603Z,21.22
2022-09-07T05:49:01.194Z,21.23
2022-09-07T05:51:27.941Z,21.27
2022-09-07T05:53:56.278Z,21.28
2022-09-07T05:56:23.011Z,21.28
2022-09-07T05:58:49.963Z,21.22
2022-09-07T06:01:17.074Z,21.18
2022-09-07T06:03:44.588Z,21.15
2022-09-07T06:06:17.007Z,21.16
2022-09-07T06:08:45.925Z,21.17
2022-09-07T06:11:14.571Z,21.17
2022-09-07T06:13:41.915Z,21.16
2022-09-07T06:16:10.390Z,21.15
2022-09-07T06:18:45.171Z,21.14
2022-09-07T06:21:16.839Z,21.13
2022-09-07T06:23:44.147Z,21.13
2022-09-07T06:26:11.599Z,21.13
2022-09-07T06:28:43.160Z,21.12
2022-09-07T06:31:15.016Z,21.12
2022-09-07T06:33:42.884Z,21.10
2022-09-07T06:36:12.644Z,21.06
2022-09-07T06:38:39.876Z,21.02
2022-09-07T06:44:00.739Z,20.98
2022-09-07T06:49:14.681Z,21.02
2022-09-07T06:51:41.428Z,21.04
2022-09-07T06:56:56.234Z,21.05
2022-09-07T06:59:22.981Z,21.04
2022-09-07T07:01:50.006Z,21.04
2022-09-07T07:04:16.788Z,21.06
2022-09-07T07:06:43.542Z,21.09
2022-09-07T07:09:12.080Z,21.11
2022-09-07T07:11:38.924Z,21.12
2022-09-07T07:14:05.761Z,21.11
2022-09-07T07:16:32.571Z,21.12
2022-09-07T07:18:59.444Z,21.15
2022-09-07T07:21:28.880Z,21.15
2022-09-07T07:23:58.676Z,21.18
2022-09-07T07:26:28.685Z,21.19
2022-09-07T07:31:26.224Z,21.31
2022-09-07T07:33:53.389Z,21.38
2022-09-07T07:36:22.470Z,21.46
2022-09-07T07:44:17.998Z,21.89
2022-09-07T07:46:48.879Z,22.13
2022-09-07T07:49:15.952Z,22.32
2022-09-07T07:54:29.356Z,22.72
2022-09-07T07:56:56.206Z,22.86
2022-09-07T07:59:23.188Z,22.97
2022-09-07T08:01:50.138Z,23.13
2022-09-07T08:04:16.978Z,23.33
2022-09-07T08:06:43.689Z,23.49
2022-09-07T08:09:11.865Z,23.65
2022-09-07T08:11:40.204Z,23.77
2022-09-07T08:14:08.516Z,23.81
2022-09-07T08:16:36.204Z,23.85
2022-09-07T08:19:03.378Z,23.88
2022-09-07T08:21:30.157Z,23.90
2022-09-07T08:23:56.868Z,23.91
2022-09-07T08:26:23.620Z,23.96
2022-09-07T08:28:50.384Z,24.07
2022-09-07T08:31:17.506Z,24.16
2022-09-07T08:33:44.827Z,24.27
2022-09-07T08:36:19.501Z,24.36
2022-09-07T08:38:46.673Z,24.43
2022-09-07T08:41:46.829Z,24.51
2022-09-07T08:44:21.121Z,24.59
2022-09-07T08:46:56.199Z,24.66
2022-09-07T08:49:28.160Z,24.76
2022-09-07T08:51:59.001Z,24.86
2022-09-07T08:54:25.732Z,24.95
2022-09-07T09:00:01.899Z,25.13
2022-09-07T09:02:32.610Z,25.17
2022-09-07T09:05:17.553Z,25.19
2022-09-07T09:08:19.554Z,25.25
2022-09-07T09:10:58.216Z,25.28
2022-09-07T09:13:48.258Z,25.32
2022-09-07T09:16:31.476Z,25.34
2022-09-07T09:19:15.470Z,25.36
2022-09-07T09:21:42.966Z,25.44
2022-09-07T09:24:15.762Z,25.49
2022-09-07T09:26:44.844Z,25.55
2022-09-07T09:29:15.430Z,25.59
2022-09-07T09:31:42.367Z,25.61
2022-09-07T09:34:11.451Z,25.62
2022-09-07T09:36:56.772Z,25.65
2022-09-07T09:39:36.758Z,25.69
2022-09-07T09:42:09.680Z,25.73
2022-09-07T09:44:38.259Z,25.79
2022-09-07T09:49:53.593Z,25.84
2022-09-07T09:52:31.261Z,25.89
2022-09-07T09:55:23.611Z,25.93
2022-09-07T10:01:21.262Z,26.00
2022-09-07T10:06:19.202Z,26.06
2022-09-07T10:08:55.998Z,26.08
2022-09-07T10:14:36.414Z,26.15
2022-09-07T10:17:21.800Z,26.16
2022-09-07T10:19:49.594Z,26.13
2022-09-07T10:22:28.651Z,26.17
2022-09-07T10:24:55.420Z,26.20
2022-09-07T10:27:37.456Z,26.26
2022-09-07T10:30:13.811Z,26.28
2022-09-07T10:32:46.933Z,26.30
2022-09-07T10:35:20.629Z,26.38
2022-09-07T10:37:56.831Z,26.50
2022-09-07T10:40:34.653Z,26.63
2022-09-07T10:43:23.652Z,26.74
2022-09-07T10:46:12.949Z,26.86
2022-09-07T10:49:01.053Z,26.92
2022-09-07T10:51:37.410Z,26.96
2022-09-07T10:54:30.524Z,27.01
2022-09-07T10:57:03.649Z,27.02
2022-09-07T11:03:27.169Z,27.10
2022-09-07T11:06:08.137Z,27.15
2022-09-07T11:09:16.502Z,27.25
2022-09-07T11:12:03.872Z,27.38
2022-09-07T11:15:12.423Z,27.48
2022-09-07T11:17:53.353Z,27.55
2022-09-07T11:20:37.457Z,27.57
2022-09-07T11:23:12.533Z,27.55
2022-09-07T11:25:57.717Z,27.54
2022-09-07T11:28:29.130Z,27.53
2022-09-07T11:31:03.838Z,27.58
2022-09-07T11:33:35.378Z,27.63
2022-09-07T11:36:19.832Z,27.70
2022-09-07T11:38:54.362Z,27.75
2022-09-07T11:41:22.744Z,27.82
2022-09-07T11:43:56.434Z,27.87
2022-09-07T11:46:48.949Z,27.89
2022-09-07T11:49:20.502Z,27.90
2022-09-07T11:52:05.097Z,27.94
2022-09-07T11:54:37.746Z,28.00
2022-09-07T11:57:14.685Z,28.03
2022-09-07T11:59:56.042Z,28.08
2022-09-07T12:03:00.989Z,28.19
2022-09-07T12:05:49.778Z,28.33
2022-09-07T12:08:35.518Z,28.45
2022-09-07T12:11:02.166Z,28.53
2022-09-07T12:13:33.684Z,28.59
2022-09-07T12:16:21.463Z,28.59
2022-09-07T12:19:17.945Z,28.61
2022-09-07T12:21:53.615Z,28.66
2022-09-07T12:24:41.989Z,28.69
2022-09-07T12:27:20.772Z,28.75
2022-09-07T12:29:48.873Z,28.82
2022-09-07T12:32:54.984Z,28.87
2022-09-07T12:35:28.629Z,28.92
2022-09-07T12:37:56.350Z,28.98
2022-09-07T12:40:29.108Z,29.04
2022-09-07T12:43:14.336Z,29.11
2022-09-07T12:45:41.524Z,29.17
2022-09-07T12:48:17.497Z,29.21
2022-09-07T12:50:55.476Z,29.24
2022-09-07T12:53:38.377Z,29.27
2022-09-07T12:56:18.312Z,29.30
2022-09-07T12:58:55.729Z,29.32
2022-09-07T13:01:31.805Z,29.35
2022-09-07T13:04:29.045Z,29.37
2022-09-07T13:07:03.361Z,29.43
2022-09-07T13:09:32.784Z,29.45
2022-09-07T13:12:00.456Z,29.47
2022-09-07T13:14:28.777Z,29.50
2022-09-07T13:17:33.887Z,29.52
2022-09-07T13:20:01.292Z,29.55
2022-09-07T13:22:30.955Z,29.55
2022-09-07T13:25:20.480Z,29.56
2022-09-07T13:27:56.953Z,29.59
2022-09-07T13:30:48.356Z,29.63
2022-09-07T13:33:24.167Z,29.66
2022-09-07T13:36:03.453Z,29.69
2022-09-07T13:38:31.268Z,29.74
2022-09-07T13:41:04.999Z,29.74
2022-09-07T13:43:31.833Z,29.77
2022-09-07T13:46:04.857Z,29.81
2022-09-07T13:48:36.874Z,29.85
2022-09-07T13:51:24.985Z,29.91
2022-09-07T13:54:14.206Z,29.95
2022-09-07T13:57:11.777Z,29.97
2022-09-07T13:59:41.113Z,30.02
2022-09-07T14:02:34.829Z,30.08
2022-09-07T14:05:01.894Z,30.09
2022-09-07T14:07:30.261Z,30.10
2022-09-07T14:10:05.982Z,30.14
2022-09-07T14:12:41.561Z,30.20
2022-09-07T14:15:21.727Z,30.26
2022-09-07T14:17:49.102Z,30.28
2022-09-07T14:20:17.117Z,30.31
2022-09-07T14:22:44.084Z,30.32
2022-09-07T14:25:22.209Z,30.34
2022-09-07T14:27:49.721Z,30.34
2022-09-07T14:30:19.377Z,30.34
2022-09-07T14:32:47.180Z,30.38
2022-09-07T14:35:15.936Z,30.42
2022-09-07T14:37:42.715Z,30.44
2022-09-07T14:40:15.545Z,30.43
2022-09-07T14:42:42.654Z,30.43
2022-09-07T14:45:37.777Z,30.38
2022-09-07T14:48:12.492Z,30.31
2022-09-07T14:50:41.237Z,30.27
2022-09-07T14:56:09.565Z,30.18
2022-09-07T14:58:36.295Z,30.18
2022-09-07T15:04:02.203Z,30.15
2022-09-07T15:09:37.974Z,30.07
2022-09-07T15:12:18.111Z,30.00
2022-09-07T15:14:44.945Z,29.95
2022-09-07T15:20:36.272Z,29.90
2022-09-07T15:23:05.085Z,29.88
2022-09-07T15:25:32.473Z,29.86
2022-09-07T15:27:59.182Z,29.91
2022-09-07T15:30:27.241Z,29.93
2022-09-07T15:32:57.617Z,29.94
2022-09-07T15:35:24.880Z,29.98
2022-09-07T15:38:59.415Z,29.99
2022-09-07T15:41:18.126Z,30.01
2022-09-07T15:43:34.353Z,30.02
2022-09-07T15:46:02.127Z,30.05
2022-09-07T15:48:30.626Z,30.04
2022-09-07T15:51:03.413Z,30.02
2022-09-07T15:56:20.357Z,30.02
2022-09-07T15:58:51.964Z,29.99
2022-09-07T16:04:05.535Z,29.99
2022-09-07T16:06:32.821Z,29.99
2022-09-07T16:09:06.011Z,29.99
2022-09-07T16:11:35.294Z,30.02
2022-09-07T16:14:03.423Z,30.07
2022-09-07T16:19:20.512Z,30.06
2022-09-07T16:21:47.749Z,30.05
2022-09-07T16:24:14.527Z,30.01
2022-09-07T16:26:41.249Z,29.98
2022-09-07T16:29:08.055Z,29.96
2022-09-07T16:31:35.353Z,29.94
2022-09-07T16:34:03.424Z,29.89
2022-09-07T16:36:30.643Z,29.85
2022-09-07T16:39:01.008Z,29.82
2022-09-07T16:41:31.882Z,29.77
2022-09-07T16:43:59.223Z,29.73
2022-09-07T16:46:28.166Z,29.69
2022-09-07T16:48:55.183Z,29.65
2022-09-07T16:51:22.945Z,29.63
2022-09-07T16:53:51.148Z,29.61
2022-09-07T16:56:19.489Z,29.61
2022-09-07T16:58:48.146Z,29.59
2022-09-07T17:01:16.871Z,29.60
2022-09-07T17:03:43.760Z,29.62
2022-09-07T17:06:12.601Z,29.61
2022-09-07T17:08:39.764Z,29.61
2022-09-07T17:11:08.906Z,29.58
2022-09-07T17:13:37.411Z,29.53
2022-09-07T17:16:08.417Z,29.42
2022-09-07T17:21:22.835Z,29.22
2022-09-07T17:23:54.744Z,29.13
2022-09-07T17:26:22.542Z,29.05
2022-09-07T17:28:50.445Z,28.95
2022-09-07T17:34:11.175Z,28.72
2022-09-07T17:36:37.895Z,28.62
2022-09-07T17:39:20.240Z,28.55
2022-09-07T17:41:48.335Z,28.45
2022-09-07T17:44:15.362Z,28.39
2022-09-07T17:46:42.144Z,28.33
2022-09-07T17:49:12.093Z,28.27
2022-09-07T17:51:39.264Z,28.21
2022-09-07T17:54:10.211Z,28.13
2022-09-07T17:56:38.095Z,28.07
2022-09-07T18:01:53.661Z,27.92
2022-09-07T18:04:20.504Z,27.88
2022-09-07T18:06:47.279Z,27.82
2022-09-07T18:09:14.001Z,27.79
2022-09-07T18:11:47.194Z,27.74
2022-09-07T18:14:15.228Z,27.69
2022-09-07T18:16:43.873Z,27.66
2022-09-07T18:19:11.834Z,27.62
2022-09-07T18:21:40.943Z,27.59
2022-09-07T18:24:14.090Z,27.56
2022-09-07T18:26:40.880Z,27.49
2022-09-07T18:29:18.818Z,27.46
2022-09-07T18:31:53.941Z,27.43
2022-09-07T18:34:20.829Z,27.41
2022-09-07T18:36:47.741Z,27.40
2022-09-07T18:39:14.613Z,27.39
2022-09-07T18:41:41.991Z,27.36
2022-09-07T18:45:27.154Z,27.32
2022-09-07T18:46:55.569Z,27.28
2022-09-07T18:49:22.283Z,27.24
2022-09-07T18:54:35.683Z,27.17
2022-09-07T18:57:02.419Z,27.15
2022-09-07T18:59:29.739Z,27.11
2022-09-07T19:02:03.040Z,27.07
2022-09-07T19:07:17.912Z,27.01
2022-09-07T19:09:44.614Z,26.98
2022-09-07T19:12:11.310Z,26.94
2022-09-07T19:14:38.014Z,26.91
2022-09-07T19:17:04.721Z,26.87
2022-09-07T19:19:32.844Z,26.85
2022-09-07T19:22:01.487Z,26.83
2022-09-07T19:24:28.428Z,26.81
2022-09-07T19:27:00.082Z,26.79
2022-09-07T19:29:27.305Z,26.78
2022-09-07T19:32:06.859Z,26.74
2022-09-07T19:34:35.160Z,26.71
2022-09-07T19:37:02.710Z,26.67
2022-09-07T19:39:29.449Z,26.62
2022-09-07T19:41:56.199Z,26.58
2022-09-07T19:44:22.929Z,26.52
2022-09-07T19:46:49.747Z,26.49
2022-09-07T19:49:16.988Z,26.46
2022-09-07T19:51:43.720Z,26.43
2022-09-07T19:54:10.961Z,26.38
2022-09-07T19:56:38.757Z,26.36
2022-09-07T19:59:05.964Z,26.33
2022-09-07T20:01:32.857Z,26.31
2022-09-07T20:04:02.325Z,26.27
2022-09-07T20:06:29.978Z,26.26
2022-09-07T20:08:56.705Z,26.24
2022-09-07T20:11:23.805Z,26.22
2022-09-07T20:13:50.592Z,26.19
2022-09-07T20:16:18.910Z,26.18
2022-09-07T20:18:46.103Z,26.15
2022-09-07T20:21:24.220Z,26.12
2022-09-07T20:23:51.145Z,26.10
2022-09-07T20:26:19.960Z,26.10
2022-09-07T20:28:46.805Z,26.09
2022-09-07T20:31:15.152Z,26.09
2022-09-07T20:33:42.993Z,26.09
2022-09-07T20:36:11.669Z,26.10
2022-09-07T20:38:47.124Z,26.10
2022-09-07T20:41:16.236Z,26.11
2022-09-07T20:43:42.942Z,26.10
2022-09-07T20:46:09.674Z,26.09
2022-09-07T20:48:37.254Z,26.11
2022-09-07T20:51:06.431Z,26.09
2022-09-07T20:53:33.232Z,26.10
2022-09-07T20:56:00.632Z,26.08
2022-09-07T20:58:27.514Z,26.06
2022-09-07T21:00:54.254Z,26.04
2022-09-07T21:03:21.423Z,26.03
2022-09-07T21:05:48.180Z,26.02
2022-09-07T21:08:15.378Z,26.03
2022-09-07T21:10:43.404Z,26.01
2022-09-07T21:13:10.265Z,26.00
2022-09-07T21:15:41.616Z,25.99
2022-09-07T21:18:12.516Z,25.96
2022-09-07T21:20:39.210Z,25.94
2022-09-07T21:23:05.944Z,25.92
2022-09-07T21:25:32.646Z,25.90
2022-09-07T21:27:59.345Z,25.85
2022-09-07T21:30:26.047Z,25.85
2022-09-07T21:32:52.796Z,25.80
2022-09-07T21:35:19.496Z,25.79
2022-09-07T21:37:46.210Z,25.76
2022-09-07T21:40:12.981Z,25.74
2022-09-07T21:42:39.762Z,25.72
2022-09-07T21:45:07.429Z,25.70
2022-09-07T21:47:34.122Z,25.70
2022-09-07T21:50:00.828Z,25.67
2022-09-07T21:52:27.525Z,25.67
2022-09-07T21:54:54.296Z,25.67
2022-09-07T21:57:21.023Z,25.65
2022-09-07T21:59:47.911Z,25.62
2022-09-07T22:02:14.976Z,25.60
2022-09-07T22:04:41.744Z,25.59
2022-09-07T22:07:08.445Z,25.57
2022-09-07T22:09:35.321Z,25.53
2022-09-07T22:12:02.306Z,25.49
2022-09-07T22:14:29.058Z,25.45
2022-09-07T22:16:56.125Z,25.41
2022-09-07T22:19:22.840Z,25.38
2022-09-07T22:21:49.572Z,25.35
2022-09-07T22:24:16.312Z,25.32
2022-09-07T22:26:43.038Z,25.29
2022-09-07T22:29:11.161Z,25.26
2022-09-07T22:31:38.081Z,25.23
2022-09-07T22:34:08.051Z,25.17
2022-09-07T22:36:39.887Z,25.13
2022-09-07T22:39:10.371Z,25.10
2022-09-07T22:41:38.227Z,25.05
2022-09-07T22:44:06.196Z,25.01
2022-09-07T22:46:35.443Z,24.98
2022-09-07T22:49:02.279Z,24.94
2022-09-07T22:51:28.994Z,24.88
2022-09-07T22:53:55.745Z,24.86
2022-09-07T22:56:25.975Z,24.82
2022-09-07T22:58:55.487Z,24.78
2022-09-07T23:01:22.779Z,24.74
2022-09-07T23:03:49.752Z,24.70
2022-09-07T23:06:27.687Z,24.66
2022-09-07T23:08:55.777Z,24.62
2022-09-07T23:11:24.160Z,24.59
2022-09-07T23:13:52.772Z,24.54
2022-09-07T23:16:20.541Z,24.49
2022-09-07T23:18:47.295Z,24.47
2022-09-07T23:21:14.480Z,24.43
2022-09-07T23:23:41.167Z,24.40
2022-09-07T23:26:07.882Z,24.36
2022-09-07T23:28:34.588Z,24.35
2022-09-07T23:31:01.340Z,24.30
2022-09-07T23:33:28.142Z,24.28
2022-09-07T23:36:05.927Z,24.25
2022-09-07T23:38:32.712Z,24.21
2022-09-07T23:40:59.925Z,24.17
2022-09-07T23:43:27.744Z,24.15
2022-09-07T23:45:54.914Z,24.12
2022-09-07T23:48:22.739Z,24.09
2022-09-07T23:50:49.874Z,24.06
2022-09-07T23:53:16.892Z,24.02
2022-09-07T23:55:43.823Z,23.99
2022-09-07T23:58:10.513Z,23.95
